Time;durP1;ratioP1;P1;durP2;ratioP2;P2;SDS_P1;SDS_P2;PMS_P1;PMS_P2;Temp;Humidity;BMP_temperature;BMP_pressure;BME280_temperature;BME280_humidity;BME280_pressure;Samples;Min_cycle;Max_cycle;Signal;HPM_P1;HPM_P2
2023/06/09 00:01:58;;;;;;;4.80;4.50;;;14.80;99.90;;;;;;5035092;28;20179;-82
2023/06/09 00:04:25;;;;;;;4.97;4.20;;;14.70;99.90;;;;;;5052976;28;20560;-82
2023/06/09 00:06:54;;;;;;;3.80;3.60;;;14.80;99.90;;;;;;5053002;28;20179;-84
2023/06/09 00:09:20;;;;;;;4.00;3.70;;;14.80;99.90;;;;;;5052509;28;20261;-83
2023/06/09 00:11:50;;;;;;;3.87;3.60;;;14.70;99.90;;;;;;5038919;28;20179;-84
2023/06/09 00:14:15;;;;;;;3.80;3.60;;;14.60;99.90;;;;;;5036960;28;20198;-82
2023/06/09 00:16:46;;;;;;;4.03;3.83;;;14.60;99.90;;;;;;5052517;28;20207;-83
2023/06/09 00:19:13;;;;;;;5.17;4.77;;;14.50;99.90;;;;;;5034303;28;20666;-83
2023/06/09 00:21:39;;;;;;;4.00;3.70;;;14.50;99.90;;;;;;5034172;28;20182;-82
2023/06/09 00:24:05;;;;;;;4.43;4.00;;;14.40;99.90;;;;;;5034471;28;20693;-83
2023/06/09 00:26:31;;;;;;;4.40;3.87;;;14.50;99.90;;;;;;5035087;28;20647;-83
2023/06/09 00:28:56;;;;;;;4.17;3.77;;;14.50;99.90;;;;;;5036742;28;20175;-81
2023/06/09 00:31:22;;;;;;;4.30;4.00;;;14.50;99.90;;;;;;5053075;28;20179;-82
2023/06/09 00:33:48;;;;;;;4.57;4.27;;;14.50;99.90;;;;;;5034783;28;20643;-82
2023/06/09 00:36:14;;;;;;;3.80;3.60;;;14.50;99.90;;;;;;5061171;28;20236;-82
2023/06/09 00:38:40;;;;;;;4.10;3.87;;;14.50;99.90;;;;;;5063787;28;20195;-83
2023/06/09 00:41:06;;;;;;;4.00;3.80;;;14.50;99.90;;;;;;5079981;28;20185;-82
2023/06/09 00:43:31;;;;;;;4.80;4.30;;;14.50;99.90;;;;;;5060121;28;20179;-83
2023/06/09 00:46:01;;;;;;;4.33;4.03;;;14.50;99.90;;;;;;5063947;28;20179;-82
2023/06/09 00:48:27;;;;;;;4.90;4.50;;;14.50;99.90;;;;;;5081646;28;20209;-85
2023/06/09 00:50:53;;;;;;;4.93;4.53;;;14.50;99.90;;;;;;5062705;28;20234;-82
2023/06/09 00:53:19;;;;;;;5.33;4.83;;;14.40;99.90;;;;;;5048257;28;20317;-83
2023/06/09 00:55:45;;;;;;;4.97;4.57;;;14.40;99.90;;;;;;5075028;28;20211;-82
2023/06/09 00:58:11;;;;;;;4.50;4.20;;;14.40;99.90;;;;;;5067177;28;20251;-82
2023/06/09 01:00:38;;;;;;;5.13;4.70;;;14.40;99.90;;;;;;5051983;28;20251;-83
2023/06/09 01:03:05;;;;;;;6.30;5.73;;;14.40;99.90;;;;;;5041695;28;20640;-84
2023/06/09 01:05:32;;;;;;;5.17;4.77;;;14.40;99.90;;;;;;5067481;28;20180;-82
2023/06/09 01:08:14;;;;;;;5.17;4.77;;;14.40;99.90;;;;;;5075434;28;20167;-83
2023/06/09 01:10:59;;;;;;;5.73;5.33;;;14.40;99.90;;;;;;5066691;28;20163;-82
2023/06/09 01:13:34;;;;;;;5.57;5.07;;;14.40;99.90;;;;;;5056312;28;20189;-82
2023/06/09 01:16:21;;;;;;;6.57;5.90;;;14.40;99.90;;;;;;5055761;28;20199;-82
2023/06/09 01:18:49;;;;;;;5.80;5.30;;;14.40;99.90;;;;;;5055458;28;20172;-84
2023/06/09 01:21:35;;;;;;;6.00;5.40;;;14.40;99.90;;;;;;5037605;28;20190;-81
2023/06/09 01:24:14;;;;;;;7.13;5.33;;;14.40;99.90;;;;;;5037606;28;20187;-80
2023/06/09 01:26:40;;;;;;;5.93;5.43;;;14.30;99.90;;;;;;5060029;28;20158;-83
2023/06/09 01:29:07;;;;;;;5.60;5.20;;;14.30;99.90;;;;;;5040602;28;20350;-82
2023/06/09 01:31:33;;;;;;;5.40;5.00;;;14.40;99.90;;;;;;5058397;28;20168;-85
2023/06/09 01:34:03;;;;;;;5.90;4.53;;;14.30;99.90;;;;;;5057108;28;20177;-82
2023/06/09 01:36:29;;;;;;;5.27;4.77;;;14.30;99.90;;;;;;5058760;28;20206;-85
2023/06/09 01:38:57;;;;;;;4.63;4.33;;;14.30;99.90;;;;;;5056268;28;20201;-81
2023/06/09 01:41:23;;;;;;;4.70;4.30;;;14.30;99.90;;;;;;5037029;28;20653;-83
2023/06/09 01:43:49;;;;;;;5.03;4.43;;;14.30;99.90;;;;;;5054728;28;20254;-82
2023/06/09 01:46:15;;;;;;;4.23;3.93;;;14.30;99.90;;;;;;5036961;28;20282;-82
2023/06/09 01:48:58;;;;;;;4.60;4.30;;;14.30;99.90;;;;;;5053834;28;20244;-83
2023/06/09 01:51:29;;;;;;;4.50;4.20;;;14.20;99.90;;;;;;5036588;28;20238;-81
2023/06/09 01:54:01;;;;;;;5.13;4.63;;;14.20;99.90;;;;;;5036595;28;20628;-81
2023/06/09 01:56:42;;;;;;;5.03;4.03;;;14.10;99.90;;;;;;5055247;28;20273;-81
2023/06/09 01:59:15;;;;;;;4.27;3.97;;;14.10;99.90;;;;;;5036727;28;20219;-81
2023/06/09 02:01:44;;;;;;;4.23;3.93;;;14.00;99.90;;;;;;5054585;28;20164;-81
2023/06/09 02:04:13;;;;;;;4.00;3.70;;;14.00;99.90;;;;;;5054612;28;20652;-82
2023/06/09 02:06:41;;;;;;;4.73;4.33;;;14.00;99.90;;;;;;5036706;28;20221;-83
2023/06/09 02:09:06;;;;;;;4.57;4.17;;;14.00;99.90;;;;;;5054646;28;20180;-81
2023/06/09 02:11:32;;;;;;;4.40;4.00;;;14.00;99.90;;;;;;5036792;28;20657;-82
2023/06/09 02:13:58;;;;;;;6.67;3.93;;;14.00;99.90;;;;;;5056394;28;20263;-83
2023/06/09 02:16:24;;;;;;;4.23;3.93;;;14.00;99.90;;;;;;5036884;28;20237;-82
2023/06/09 02:18:51;;;;;;;4.30;4.00;;;14.00;99.90;;;;;;5036314;28;20238;-83
2023/06/09 02:21:16;;;;;;;4.80;4.47;;;13.90;99.90;;;;;;5036474;28;20184;-83
2023/06/09 02:23:42;;;;;;;3.73;3.43;;;14.00;99.90;;;;;;5036140;28;20230;-81
2023/06/09 02:26:08;;;;;;;3.40;3.20;;;14.00;99.90;;;;;;5054328;28;20233;-82
2023/06/09 02:28:34;;;;;;;4.00;3.70;;;13.90;99.90;;;;;;5054937;28;20258;-82
2023/06/09 02:31:00;;;;;;;3.67;3.47;;;14.00;99.90;;;;;;5048817;28;20176;-85
2023/06/09 02:33:26;;;;;;;3.83;3.53;;;14.00;99.90;;;;;;5057217;28;20179;-82
2023/06/09 02:35:52;;;;;;;4.07;3.87;;;14.00;99.90;;;;;;5036664;28;20261;-82
2023/06/09 02:38:18;;;;;;;3.70;3.47;;;13.90;99.90;;;;;;5056282;28;20175;-82
2023/06/09 02:40:46;;;;;;;4.60;4.23;;;13.90;99.90;;;;;;5056400;28;20383;-82
2023/06/09 02:43:12;;;;;;;3.67;3.37;;;13.90;99.90;;;;;;5071289;28;20174;-81
2023/06/09 02:45:38;;;;;;;3.60;3.40;;;13.90;99.90;;;;;;5047696;28;20548;-83
2023/06/09 02:48:05;;;;;;;3.83;3.30;;;13.80;99.90;;;;;;5056363;28;20168;-83
2023/06/09 02:50:31;;;;;;;3.30;3.20;;;13.80;99.90;;;;;;5054294;28;20223;-83
2023/06/09 02:52:57;;;;;;;3.60;3.40;;;13.70;99.90;;;;;;5053778;28;20324;-83
2023/06/09 02:55:22;;;;;;;3.40;3.17;;;13.70;99.90;;;;;;5053902;28;20390;-83
2023/06/09 02:57:48;;;;;;;4.17;3.87;;;13.70;99.90;;;;;;5036053;28;20172;-82
2023/06/09 03:00:15;;;;;;;3.60;3.40;;;13.70;99.90;;;;;;5053471;28;20184;-82
2023/06/09 03:02:41;;;;;;;3.63;3.43;;;13.70;99.90;;;;;;5053519;28;20175;-81
2023/06/09 03:05:09;;;;;;;3.30;3.10;;;13.70;99.90;;;;;;5056350;28;20176;-82
2023/06/09 03:07:36;;;;;;;3.80;3.47;;;13.60;99.90;;;;;;5039788;28;20559;-83
2023/06/09 03:10:02;;;;;;;3.20;3.07;;;13.60;99.90;;;;;;5038279;28;20187;-82
2023/06/09 03:12:28;;;;;;;3.70;3.40;;;13.60;99.90;;;;;;5061458;28;20172;-81
2023/06/09 03:14:54;;;;;;;3.40;3.20;;;13.60;99.90;;;;;;5058612;28;20190;-83
2023/06/09 03:17:19;;;;;;;3.50;3.30;;;13.60;99.90;;;;;;5058117;28;20245;-81
2023/06/09 03:19:45;;;;;;;3.57;3.23;;;13.60;99.90;;;;;;5035565;28;20563;-83
2023/06/09 03:22:11;;;;;;;3.33;3.10;;;13.60;99.90;;;;;;5053143;28;20187;-81
2023/06/09 03:24:39;;;;;;;4.10;3.80;;;13.60;99.90;;;;;;5034771;28;20447;-81
2023/06/09 03:27:05;;;;;;;3.70;3.30;;;13.60;99.90;;;;;;5060684;28;20632;-81
2023/06/09 03:29:31;;;;;;;3.73;3.53;;;13.70;99.90;;;;;;5042829;28;20183;-84
2023/06/09 03:31:57;;;;;;;3.80;3.50;;;13.70;99.90;;;;;;5054471;28;20175;-81
2023/06/09 03:34:23;;;;;;;3.80;3.27;;;13.70;99.90;;;;;;5036482;28;20195;-82
2023/06/09 03:36:48;;;;;;;3.23;2.90;;;13.70;99.90;;;;;;5053990;28;20203;-82
2023/06/09 03:39:14;;;;;;;3.77;3.47;;;13.70;99.90;;;;;;5053165;28;20254;-82
2023/06/09 03:41:40;;;;;;;3.97;3.40;;;13.70;99.90;;;;;;5053403;28;20171;-84
2023/06/09 03:44:05;;;;;;;7.33;3.70;;;13.70;99.90;;;;;;5054623;28;20624;-81
2023/06/09 03:46:31;;;;;;;4.00;3.03;;;13.70;99.90;;;;;;5052863;28;20175;-82
2023/06/09 03:48:57;;;;;;;4.03;3.73;;;13.60;99.90;;;;;;5052910;28;20172;-82
2023/06/09 03:51:23;;;;;;;3.47;3.27;;;13.70;99.90;;;;;;5052863;28;20231;-82
2023/06/09 03:53:49;;;;;;;3.50;3.30;;;13.70;99.90;;;;;;5034454;28;20180;-81
2023/06/09 03:56:14;;;;;;;3.70;3.50;;;13.80;99.90;;;;;;5052711;28;20235;-81
2023/06/09 03:58:40;;;;;;;3.03;2.90;;;13.90;99.90;;;;;;5052875;28;20207;-82
2023/06/09 04:01:10;;;;;;;3.63;3.40;;;13.90;99.90;;;;;;5034993;28;20183;-82
2023/06/09 04:03:37;;;;;;;3.50;3.30;;;13.90;99.90;;;;;;5052483;28;20168;-83
2023/06/09 04:06:03;;;;;;;3.27;3.13;;;13.90;99.90;;;;;;5039349;28;20317;-83
2023/06/09 04:08:29;;;;;;;3.27;3.10;;;13.90;99.90;;;;;;5066677;28;20176;-82
2023/06/09 04:10:55;;;;;;;3.10;2.97;;;13.90;99.90;;;;;;5053677;28;20196;-81
2023/06/09 04:13:21;;;;;;;3.60;3.30;;;13.90;99.90;;;;;;5034761;28;20183;-83
2023/06/09 04:15:47;;;;;;;3.60;3.30;;;14.00;99.90;;;;;;5053360;28;20668;-81
2023/06/09 04:18:13;;;;;;;3.63;3.40;;;14.00;99.90;;;;;;5065681;28;20176;-81
2023/06/09 04:20:39;;;;;;;3.33;3.13;;;14.00;99.90;;;;;;5062108;28;20174;-83
2023/06/09 04:23:08;;;;;;;3.40;3.20;;;14.00;99.90;;;;;;5053095;28;20167;-81
2023/06/09 04:25:35;;;;;;;3.53;3.33;;;14.00;99.90;;;;;;5052477;28;20164;-82
2023/06/09 04:28:05;;;;;;;3.63;3.40;;;14.00;99.90;;;;;;5035045;28;20178;-82
2023/06/09 04:30:34;;;;;;;3.70;3.40;;;14.10;99.90;;;;;;5036488;28;20179;-86
2023/06/09 04:33:01;;;;;;;3.70;3.50;;;14.20;99.90;;;;;;5037229;28;20552;-83
2023/06/09 04:35:27;;;;;;;4.00;3.70;;;14.20;99.90;;;;;;5052106;28;20221;-82
2023/06/09 04:37:53;;;;;;;3.60;3.40;;;14.30;99.90;;;;;;5034744;28;20537;-83
2023/06/09 04:40:23;;;;;;;3.97;3.67;;;14.40;99.90;;;;;;5055187;28;20174;-83
2023/06/09 04:42:55;;;;;;;7.53;3.80;;;14.40;99.90;;;;;;5037819;28;20179;-82
2023/06/09 04:45:27;;;;;;;3.77;3.47;;;14.60;99.90;;;;;;5035687;28;20178;-81
2023/06/09 04:47:59;;;;;;;3.90;3.60;;;14.60;99.90;;;;;;5052157;28;20168;-82
2023/06/09 04:50:25;;;;;;;4.17;3.77;;;14.60;99.90;;;;;;5034077;28;20285;-81
2023/06/09 04:52:51;;;;;;;4.27;3.30;;;14.70;99.90;;;;;;5051889;28;20598;-82
2023/06/09 04:55:18;;;;;;;3.60;3.40;;;14.80;99.90;;;;;;5052210;28;20233;-81
2023/06/09 04:57:45;;;;;;;3.47;3.27;;;14.80;99.90;;;;;;5052248;28;20172;-81
2023/06/09 05:00:16;;;;;;;4.30;3.43;;;14.80;99.90;;;;;;5034363;28;20182;-82
2023/06/09 05:02:44;;;;;;;5.03;4.63;;;14.70;99.90;;;;;;5052423;28;20152;-84
2023/06/09 05:05:11;;;;;;;5.77;5.37;;;14.70;99.90;;;;;;5053971;28;20189;-82
2023/06/09 05:07:39;;;;;;;5.50;5.00;;;14.60;99.90;;;;;;5058577;28;20204;-82
2023/06/09 05:10:07;;;;;;;5.57;5.17;;;14.60;99.90;;;;;;5038173;28;20262;-84
2023/06/09 05:12:33;;;;;;;6.03;5.57;;;14.50;99.90;;;;;;5063296;28;20167;-83
2023/06/09 05:14:59;;;;;;;5.90;5.40;;;14.60;99.90;;;;;;5068225;28;20180;-82
2023/06/09 05:17:26;;;;;;;5.90;5.43;;;14.70;99.90;;;;;;5038385;28;20589;-83
2023/06/09 05:19:52;;;;;;;8.13;6.90;;;14.70;99.90;;;;;;5058450;28;20178;-82
2023/06/09 05:22:18;;;;;;;8.27;7.47;;;14.80;99.90;;;;;;5063998;28;20174;-84
2023/06/09 05:24:44;;;;;;;8.53;7.73;;;14.90;99.90;;;;;;5061066;28;20184;-83
2023/06/09 05:27:10;;;;;;;8.57;7.30;;;15.00;99.90;;;;;;5041545;28;20190;-83
2023/06/09 05:29:37;;;;;;;8.17;7.47;;;15.00;99.90;;;;;;5041848;28;20185;-82
2023/06/09 05:32:03;;;;;;;8.37;7.57;;;15.20;99.90;;;;;;5042764;28;20203;-84
2023/06/09 05:34:30;;;;;;;10.03;7.83;;;15.20;99.90;;;;;;5061456;28;20195;-84
2023/06/09 05:36:56;;;;;;;8.93;7.47;;;15.40;99.90;;;;;;5061578;28;20200;-83
2023/06/09 05:39:22;;;;;;;9.03;7.77;;;15.50;99.90;;;;;;5059574;28;20180;-83
2023/06/09 05:41:49;;;;;;;8.27;7.47;;;15.50;99.90;;;;;;5045101;28;20249;-84
2023/06/09 05:44:15;;;;;;;8.00;7.20;;;15.50;99.90;;;;;;5068697;28;20186;-82
2023/06/09 05:46:41;;;;;;;10.40;7.47;;;15.40;99.90;;;;;;5056784;28;20180;-83
2023/06/09 05:49:07;;;;;;;8.53;7.63;;;15.50;99.90;;;;;;5055400;28;20172;-81
2023/06/09 05:51:33;;;;;;;8.03;7.27;;;15.50;99.90;;;;;;5055167;28;20750;-82
2023/06/09 05:54:00;;;;;;;7.70;7.00;;;15.60;99.90;;;;;;5046352;28;20175;-82
2023/06/09 05:56:26;;;;;;;8.70;7.80;;;15.60;99.90;;;;;;5050427;28;20211;-81
2023/06/09 05:58:52;;;;;;;7.93;7.17;;;15.70;99.90;;;;;;5056000;28;20249;-81
2023/06/09 06:01:17;;;;;;;8.17;7.10;;;15.90;99.90;;;;;;5054615;28;20645;-82
2023/06/09 06:03:44;;;;;;;7.83;6.93;;;16.10;99.90;;;;;;5054683;28;20199;-83
2023/06/09 06:06:10;;;;;;;8.20;7.40;;;16.30;99.90;;;;;;5036212;28;20185;-82
2023/06/09 06:08:38;;;;;;;9.00;7.13;;;16.40;99.90;;;;;;5036888;28;20182;-82
2023/06/09 06:11:04;;;;;;;8.43;7.30;;;16.50;99.90;;;;;;5060998;28;20173;-83
2023/06/09 06:13:30;;;;;;;7.57;6.87;;;16.60;99.90;;;;;;5056376;28;20164;-81
2023/06/09 06:15:59;;;;;;;7.20;6.60;;;16.70;99.90;;;;;;5037444;28;20218;-82
2023/06/09 06:18:25;;;;;;;8.53;7.73;;;16.90;99.90;;;;;;5054556;28;20175;-81
2023/06/09 06:20:51;;;;;;;9.23;8.27;;;17.00;99.90;;;;;;5054224;28;20241;-81
2023/06/09 06:23:17;;;;;;;9.27;8.43;;;17.10;99.90;;;;;;5054327;28;20189;-80
2023/06/09 06:25:42;;;;;;;10.37;9.07;;;17.00;99.90;;;;;;5053831;28;20260;-81
2023/06/09 06:28:10;;;;;;;10.43;8.73;;;16.80;99.90;;;;;;5035204;28;20174;-82
2023/06/09 06:30:37;;;;;;;11.27;9.87;;;16.80;99.90;;;;;;5054155;28;20167;-81
2023/06/09 06:33:04;;;;;;;11.07;9.33;;;16.80;99.90;;;;;;5036345;28;20178;-77
2023/06/09 06:35:30;;;;;;;11.67;9.77;;;16.70;99.90;;;;;;5054146;28;20665;-82
2023/06/09 06:37:57;;;;;;;12.17;10.33;;;16.80;99.90;;;;;;5036037;28;20230;-84
2023/06/09 06:40:23;;;;;;;12.43;10.27;;;17.80;99.90;;;;;;5054786;28;20184;-82
2023/06/09 06:42:49;;;;;;;12.90;9.87;;;16.70;99.90;;;;;;5055252;28;20168;-81
2023/06/09 06:45:16;;;;;;;12.67;10.43;;;16.80;99.90;;;;;;5057160;28;20179;-83
2023/06/09 06:47:43;;;;;;;12.50;10.00;;;16.90;99.90;;;;;;5056135;28;20259;-83
2023/06/09 06:50:10;;;;;;;11.80;10.13;;;16.90;99.90;;;;;;5036060;28;20183;-86
2023/06/09 06:52:36;;;;;;;11.07;9.70;;;17.00;99.90;;;;;;5054181;28;20557;-83
2023/06/09 06:55:02;;;;;;;13.10;10.07;;;17.10;99.90;;;;;;5035860;28;20178;-87
2023/06/09 06:57:28;;;;;;;11.03;9.80;;;17.20;99.90;;;;;;5039393;28;20194;-84
2023/06/09 06:59:53;;;;;;;13.10;10.20;;;17.30;99.90;;;;;;5054237;28;20575;-83
2023/06/09 07:02:19;;;;;;;11.20;10.00;;;17.50;99.90;;;;;;5035820;28;20179;-85
2023/06/09 07:04:45;;;;;;;9.90;8.97;;;17.70;99.90;;;;;;5036010;28;20175;-83
2023/06/09 07:07:10;;;;;;;12.13;9.83;;;17.80;99.90;;;;;;5053579;28;20169;-84
2023/06/09 07:09:37;;;;;;;10.53;9.47;;;18.00;99.90;;;;;;5062284;28;20168;-85
2023/06/09 07:12:03;;;;;;;11.50;9.67;;;18.10;99.90;;;;;;5067785;28;20180;-84
2023/06/09 07:14:30;;;;;;;9.23;8.20;;;18.00;99.90;;;;;;5042337;28;20179;-84
2023/06/09 07:16:56;;;;;;;10.17;8.77;;;18.00;99.90;;;;;;5054637;28;20294;-87
2023/06/09 07:19:21;;;;;;;10.10;8.30;;;18.10;99.90;;;;;;5044944;28;20218;-85
2023/06/09 07:21:47;;;;;;;8.93;8.07;;;18.20;99.90;;;;;;5054605;28;20172;-81
2023/06/09 07:24:14;;;;;;;8.70;7.83;;;18.20;99.90;;;;;;5054035;28;20179;-85
2023/06/09 07:26:40;;;;;;;9.67;7.83;;;18.20;99.90;;;;;;5053940;28;20199;-84
2023/06/09 07:29:06;;;;;;;8.90;8.00;;;18.20;99.90;;;;;;5039852;28;20179;-85
2023/06/09 07:31:31;;;;;;;9.70;8.27;;;18.30;99.90;;;;;;5045021;28;20238;-83
2023/06/09 07:33:57;;;;;;;8.47;7.57;;;18.40;99.90;;;;;;5041419;28;20271;-86
2023/06/09 07:36:24;;;;;;;9.63;7.23;;;18.60;99.90;;;;;;5056427;28;20219;-83
2023/06/09 07:38:50;;;;;;;8.13;7.30;;;18.80;99.90;;;;;;5036502;28;20226;-84
2023/06/09 07:41:16;;;;;;;11.07;9.10;;;18.70;99.90;;;;;;5054448;28;20176;-86
2023/06/09 07:43:43;;;;;;;9.37;8.33;;;18.70;99.90;;;;;;5038253;28;20175;-87
2023/06/09 07:46:10;;;;;;;8.23;7.20;;;18.60;99.90;;;;;;5054949;28;20164;-83
2023/06/09 07:48:38;;;;;;;9.30;8.40;;;18.70;99.90;;;;;;5035950;28;20175;-82
2023/06/09 07:51:04;;;;;;;7.20;6.27;;;18.80;99.90;;;;;;5053547;28;20601;-86
2023/06/09 07:53:30;;;;;;;6.30;5.80;;;19.00;99.90;;;;;;5035332;28;20583;-83
2023/06/09 07:55:57;;;;;;;5.83;5.33;;;18.90;99.90;;;;;;5034964;28;20257;-83
2023/06/09 07:58:23;;;;;;;7.10;6.43;;;19.00;99.90;;;;;;5052819;28;20186;-81
2023/06/09 08:00:51;;;;;;;7.63;6.87;;;19.10;99.90;;;;;;5052926;28;20247;-84
2023/06/09 08:03:16;;;;;;;6.57;5.93;;;19.20;99.90;;;;;;5052735;28;20160;-84
2023/06/09 08:05:42;;;;;;;6.17;5.67;;;19.00;99.90;;;;;;5052853;28;20237;-83
2023/06/09 08:08:08;;;;;;;5.87;5.37;;;19.00;99.90;;;;;;5052607;28;20302;-84
2023/06/09 08:10:33;;;;;;;6.20;5.70;;;19.20;99.90;;;;;;5052772;28;20183;-85
2023/06/09 08:12:59;;;;;;;4.83;4.43;;;19.40;99.90;;;;;;5035796;28;20172;-87
2023/06/09 08:15:25;;;;;;;5.13;4.80;;;19.60;99.90;;;;;;5035310;28;20290;-86
2023/06/09 08:17:50;;;;;;;5.20;4.80;;;19.70;99.90;;;;;;5036892;28;20255;-84
2023/06/09 08:20:16;;;;;;;4.20;3.90;;;19.70;99.90;;;;;;5054309;28;20230;-82
2023/06/09 08:22:42;;;;;;;4.57;4.27;;;19.80;99.90;;;;;;5053534;28;20179;-87
2023/06/09 08:25:09;;;;;;;4.70;4.40;;;19.80;99.90;;;;;;5054775;28;20263;-84
2023/06/09 08:27:35;;;;;;;4.20;3.90;;;19.90;99.90;;;;;;5054139;28;20266;-87
2023/06/09 08:30:02;;;;;;;4.13;3.83;;;20.10;99.90;;;;;;5053554;28;20203;-87
2023/06/09 08:32:28;;;;;;;3.63;3.43;;;20.10;99.90;;;;;;5038461;28;20187;-87
2023/06/09 08:34:53;;;;;;;3.63;3.43;;;20.10;99.90;;;;;;5076762;28;20163;-86
2023/06/09 08:37:19;;;;;;;3.83;3.53;;;20.10;99.90;;;;;;5076885;28;20211;-85
2023/06/09 08:39:47;;;;;;;4.20;3.90;;;20.10;99.90;;;;;;5059497;28;20210;-85
2023/06/09 08:42:22;;;;;;;5.07;3.93;;;20.20;99.90;;;;;;5077166;28;20152;-83
2023/06/09 08:44:53;;;;;;;4.10;3.87;;;20.30;99.90;;;;;;5077669;28;20151;-88
2023/06/09 08:47:20;;;;;;;3.80;3.60;;;20.30;99.90;;;;;;5073644;28;20172;-84
2023/06/09 08:49:48;;;;;;;3.87;3.67;;;20.20;99.90;;;;;;5065816;28;20176;-84
2023/06/09 08:52:15;;;;;;;3.90;3.70;;;20.40;99.90;;;;;;5063850;28;20220;-84
2023/06/09 08:54:41;;;;;;;4.60;4.30;;;20.50;99.90;;;;;;5068418;28;20190;-83
2023/06/09 08:57:09;;;;;;;4.07;3.83;;;20.50;99.90;;;;;;5063030;28;20574;-84
2023/06/09 08:59:35;;;;;;;4.20;3.90;;;20.60;99.90;;;;;;5039733;28;20190;-84
2023/06/09 09:02:08;;;;;;;6.43;5.80;;;20.80;99.90;;;;;;5056787;28;20258;-84
2023/06/09 09:04:34;;;;;;;4.43;4.07;;;21.00;99.90;;;;;;5057343;28;20191;-85
2023/06/09 09:07:00;;;;;;;4.40;4.10;;;20.80;99.90;;;;;;5064625;28;20176;-85
2023/06/09 09:09:26;;;;;;;4.50;4.20;;;20.80;99.90;;;;;;5040580;28;20229;-85
2023/06/09 09:11:56;;;;;;;4.33;4.03;;;20.90;99.90;;;;;;5057727;28;20175;-83
2023/06/09 09:14:23;;;;;;;3.80;3.60;;;21.00;99.90;;;;;;5059988;28;20164;-87
2023/06/09 09:16:49;;;;;;;4.33;3.97;;;;;;;;;;5042184;28;20246;-87
2023/06/09 09:19:26;;;;;;;3.80;3.60;;;21.30;99.90;;;;;;5073971;28;20182;-84
2023/06/09 09:22:01;;;;;;;4.17;3.80;;;21.40;99.90;;;;;;5047276;28;20201;-85
2023/06/09 09:24:29;;;;;;;4.27;3.97;;;21.30;99.90;;;;;;5038583;28;20179;-85
2023/06/09 09:26:56;;;;;;;4.00;3.80;;;21.10;99.90;;;;;;5056321;28;20187;-84
2023/06/09 09:29:26;;;;;;;6.67;5.50;;;21.20;99.90;;;;;;5056418;28;20174;-87
2023/06/09 09:31:58;;;;;;;4.13;3.83;;;21.30;99.90;;;;;;5039947;28;20214;-88
2023/06/09 09:34:25;;;;;;;4.30;3.90;;;21.30;99.90;;;;;;5060096;28;20661;-86
2023/06/09 09:36:55;;;;;;;4.70;3.83;;;21.50;99.90;;;;;;5056599;28;20235;-88
2023/06/09 09:39:21;;;;;;;4.13;3.87;;;21.50;99.90;;;;;;5056471;28;20168;-89
2023/06/09 09:42:07;;;;;;;3.80;3.60;;;21.50;99.90;;;;;;5038698;28;20183;-85
2023/06/09 09:44:43;;;;;;;4.07;3.77;;;21.50;99.90;;;;;;5037819;28;20172;-86
2023/06/09 09:47:15;;;;;;;4.00;3.70;;;21.70;99.90;;;;;;5056157;28;20207;-85
2023/06/09 09:50:00;;;;;;;4.37;3.60;;;21.80;99.90;;;;;;5058329;28;20168;-85
2023/06/09 09:52:32;;;;;;;3.67;3.33;;;21.50;99.90;;;;;;5055779;28;20258;-85
2023/06/09 09:55:04;;;;;;;3.73;3.43;;;21.40;99.90;;;;;;5055174;28;20160;-85
2023/06/09 09:57:31;;;;;;;3.77;3.33;;;21.50;99.90;;;;;;5055350;28;20188;-85
2023/06/09 10:00:03;;;;;;;3.00;2.90;;;21.60;99.90;;;;;;5055094;28;20267;-87
2023/06/09 10:02:30;;;;;;;3.40;3.20;;;21.70;99.90;;;;;;5041525;28;20172;-85
2023/06/09 10:05:01;;;;;;;4.27;3.97;;;21.70;99.90;;;;;;5065878;28;20191;-88
2023/06/09 10:07:30;;;;;;;3.87;3.60;;;21.80;99.90;;;;;;5056589;28;20187;-87
2023/06/09 10:09:57;;;;;;;2.80;2.70;;;21.90;99.90;;;;;;5053959;28;20160;-86
2023/06/09 10:12:24;;;;;;;3.47;3.27;;;22.00;99.90;;;;;;5055615;28;20168;-84
2023/06/09 10:14:52;;;;;;;4.13;3.83;;;22.10;99.90;;;;;;5055556;28;20251;-84
2023/06/09 10:17:21;;;;;;;3.70;3.40;;;22.20;99.90;;;;;;5054845;28;20203;-85
2023/06/09 10:19:51;;;;;;;3.80;3.50;;;22.30;99.90;;;;;;5054454;28;20203;-84
2023/06/09 10:22:18;;;;;;;3.30;3.10;;;22.40;99.90;;;;;;5037739;28;20180;-89
2023/06/09 10:24:46;;;;;;;3.50;3.30;;;22.60;99.90;;;;;;5039653;28;20203;-86
2023/06/09 10:27:14;;;;;;;2.73;2.63;;;22.70;99.90;;;;;;5060351;28;20168;-85
2023/06/09 10:29:40;;;;;;;2.90;2.80;;;22.90;99.90;;;;;;5047923;28;20255;-84
2023/06/09 10:32:09;;;;;;;3.15;2.97;;;23.00;99.90;;;;;;5072433;28;20254;-83
2023/06/09 10:34:36;;;;;;;2.95;2.85;;;23.10;99.90;;;;;;5047386;28;20548;-86
2023/06/09 10:37:04;;;;;;;2.90;2.80;;;23.40;99.90;;;;;;5061353;28;20249;-88
2023/06/09 10:39:43;;;;;;;3.65;3.45;;;23.60;99.90;;;;;;5063706;28;20160;-84
2023/06/09 10:42:38;;;;;;;2.90;2.80;;;23.70;99.90;;;;;;5065357;28;20168;-85
2023/06/09 10:45:13;;;;;;;5.47;3.05;;;23.80;99.90;;;;;;5061275;28;20183;-85
2023/06/09 10:47:43;;;;;;;3.30;3.10;;;23.90;99.90;;;;;;5057513;28;20247;-89
2023/06/09 10:50:26;;;;;;;3.30;3.10;;;24.10;99.90;;;;;;5037514;28;20172;-88
2023/06/09 10:52:57;;;;;;;3.05;2.95;;;24.30;99.90;;;;;;5055051;28;20631;-86
2023/06/09 10:55:27;;;;;;;3.10;2.92;;;24.40;99.90;;;;;;5054779;28;20164;-87
2023/06/09 10:57:55;;;;;;;3.17;3.00;;;24.40;99.90;;;;;;5057674;28;20209;-85
2023/06/09 11:00:22;;;;;;;2.90;2.80;;;24.50;99.90;;;;;;5063771;28;20615;-87
2023/06/09 11:03:12;;;;;;;2.60;2.50;;;24.50;99.90;;;;;;5057502;28;20172;-86
2023/06/09 11:05:42;;;;;;;2.72;2.53;;;24.50;99.90;;;;;;5055574;28;20659;-87
2023/06/09 11:08:08;;;;;;;2.60;2.50;;;24.60;99.90;;;;;;5054406;28;20217;-87
2023/06/09 11:10:38;;;;;;;3.50;3.30;;;24.80;99.90;;;;;;5036540;28;20180;-89
2023/06/09 11:13:49;;;;;;;3.03;2.88;;;24.90;99.90;;;;;;5054319;28;20159;-85
2023/06/09 11:16:15;;;;;;;2.90;2.70;;;24.90;99.90;;;;;;5051379;28;20242;-85
2023/06/09 11:18:41;;;;;;;2.60;2.50;;;25.00;99.90;;;;;;5057359;28;20176;-84
2023/06/09 11:21:08;;;;;;;2.85;2.75;;;25.10;99.90;;;;;;5066649;28;20168;-85
2023/06/09 11:23:56;;;;;;;2.75;2.60;;;24.90;99.90;;;;;;5039521;28;20176;-86
2023/06/09 11:26:23;;;;;;;2.95;2.78;;;24.90;99.90;;;;;;5036703;28;20244;-87
2023/06/09 11:28:49;;;;;;;2.50;2.40;;;25.00;99.90;;;;;;5036848;28;20309;-86
2023/06/09 11:31:15;;;;;;;2.70;2.60;;;25.20;99.90;;;;;;5055672;28;20204;-85
2023/06/09 11:33:46;;;;;;;2.83;2.72;;;24.70;99.90;;;;;;5039636;28;20656;-89
2023/06/09 11:36:23;;;;;;;2.60;2.50;;;24.80;99.90;;;;;;5039579;28;20215;-86
2023/06/09 11:38:50;;;;;;;2.55;2.45;;;24.80;99.90;;;;;;5058443;28;20164;-84
2023/06/09 11:41:19;;;;;;;2.97;2.80;;;25.00;99.90;;;;;;5058708;28;20176;-85
2023/06/09 11:43:50;;;;;;;3.00;2.90;;;25.10;99.90;;;;;;5056014;28;20175;-85
2023/06/09 11:46:17;;;;;;;3.30;3.00;;;25.40;99.90;;;;;;5054081;28;20179;-85
2023/06/09 11:49:06;;;;;;;3.72;3.53;;;25.30;99.90;;;;;;5036002;28;20175;-85
2023/06/09 11:51:53;;;;;;;3.50;3.33;;;25.30;99.90;;;;;;5053088;28;20222;-84
2023/06/09 11:54:20;;;;;;;3.05;2.95;;;25.40;99.90;;;;;;5052733;28;20191;-83
2023/06/09 11:56:47;;;;;;;3.10;2.90;;;25.40;99.90;;;;;;5053048;28;20204;-84
2023/06/09 11:59:15;;;;;;;3.08;2.97;;;25.50;99.90;;;;;;5053990;28;20168;-86
2023/06/09 12:01:42;;;;;;;3.20;3.03;;;25.60;99.90;;;;;;5053004;28;20479;-85
2023/06/09 12:04:07;;;;;;;3.00;2.88;;;25.60;99.90;;;;;;5053010;28;20172;-85
2023/06/09 12:06:36;;;;;;;2.85;2.75;;;25.20;99.90;;;;;;5053215;28;20598;-83
2023/06/09 12:09:21;;;;;;;2.78;2.67;;;25.00;99.90;;;;;;5053756;28;20233;-87
2023/06/09 12:11:53;;;;;;;3.50;3.30;;;25.00;99.90;;;;;;5036148;28;20659;-83
2023/06/09 12:14:21;;;;;;;2.90;2.80;;;25.10;99.90;;;;;;5054099;28;20172;-85
2023/06/09 12:16:47;;;;;;;2.95;2.85;;;25.30;99.90;;;;;;5054499;28;20200;-86
2023/06/09 12:19:13;;;;;;;3.10;2.90;;;25.20;99.90;;;;;;5054067;28;20575;-85
2023/06/09 12:21:38;;;;;;;3.22;2.92;;;25.10;99.90;;;;;;5052397;28;20636;-86
2023/06/09 12:24:05;;;;;;;2.95;2.85;;;25.10;99.90;;;;;;5052650;28;20199;-87
2023/06/09 12:26:40;;;;;;;3.00;2.80;;;25.20;99.90;;;;;;5053441;28;20487;-85
2023/06/09 12:29:06;;;;;;;3.28;3.08;;;25.40;99.90;;;;;;5035618;28;20681;-87
2023/06/09 12:31:32;;;;;;;3.80;3.60;;;25.50;99.90;;;;;;5055469;28;20179;-85
2023/06/09 12:34:00;;;;;;;3.00;2.90;;;25.50;99.90;;;;;;5036868;28;20172;-86
2023/06/09 12:36:26;;;;;;;3.20;3.00;;;25.40;99.90;;;;;;5035030;28;20207;-84
2023/06/09 12:38:52;;;;;;;2.78;2.67;;;25.30;99.90;;;;;;5036507;28;20180;-86
2023/06/09 12:41:18;;;;;;;3.08;2.78;;;25.20;99.90;;;;;;5054326;28;20654;-85
2023/06/09 12:43:50;;;;;;;3.10;2.90;;;25.30;99.90;;;;;;5052188;28;20176;-84
2023/06/09 12:46:33;;;;;;;3.08;2.88;;;25.20;99.90;;;;;;5052174;28;20180;-85
2023/06/09 12:49:04;;;;;;;3.30;3.10;;;25.30;99.90;;;;;;5034639;28;20179;-84
2023/06/09 12:51:31;;;;;;;2.70;2.60;;;25.50;99.90;;;;;;5055641;28;20227;-82